createdAt,value
2018-10-05T00:00:39.147Z,20.30
2018-10-05T00:03:11.679Z,20.20
2018-10-05T00:05:44.741Z,20.20
2018-10-05T00:08:17.047Z,20.20
2018-10-05T00:10:49.464Z,20.20
2018-10-05T00:13:21.803Z,20.10
2018-10-05T00:15:54.190Z,20.20
2018-10-05T00:18:27.147Z,20.10
2018-10-05T00:20:59.768Z,20.10
2018-10-05T00:23:32.217Z,20.00
2018-10-05T00:26:05.085Z,20.00
2018-10-05T00:28:40.880Z,20.00
2018-10-05T00:31:13.697Z,20.10
2018-10-05T00:33:46.584Z,20.10
2018-10-05T00:36:19.320Z,20.20
2018-10-05T00:38:51.716Z,20.20
2018-10-05T00:41:27.207Z,20.10
2018-10-05T00:44:00.488Z,20.10
2018-10-05T00:46:33.181Z,20.10
2018-10-05T00:49:11.885Z,20.00
2018-10-05T00:51:45.701Z,19.90
2018-10-05T00:54:19.404Z,19.80
2018-10-05T00:56:52.936Z,19.60
2018-10-05T00:59:27.714Z,19.40
2018-10-05T01:02:00.434Z,19.10
2018-10-05T01:04:33.989Z,19.00
2018-10-05T01:07:07.255Z,18.90
2018-10-05T01:09:40.374Z,18.90
2018-10-05T01:12:14.793Z,18.90
2018-10-05T01:14:48.252Z,18.90
2018-10-05T01:17:27.164Z,18.90
2018-10-05T01:20:00.205Z,18.70
2018-10-05T01:22:33.544Z,18.70
2018-10-05T01:25:07.533Z,18.70
2018-10-05T01:27:40.731Z,18.60
2018-10-05T01:30:14.488Z,18.50
2018-10-05T01:32:48.089Z,18.50
2018-10-05T01:35:21.904Z,18.40
2018-10-05T01:37:57.180Z,18.30
2018-10-05T01:40:31.221Z,18.30
2018-10-05T01:43:05.754Z,18.20
2018-10-05T01:45:44.514Z,18.20
2018-10-05T01:48:18.920Z,18.20
2018-10-05T01:50:52.053Z,18.30
2018-10-05T01:53:26.153Z,18.30
2018-10-05T01:56:01.129Z,18.20
2018-10-05T01:58:36.849Z,18.20
2018-10-05T02:01:11.541Z,18.30
2018-10-05T02:03:44.226Z,18.20
2018-10-05T02:09:37.882Z,18.00
2018-10-05T02:12:10.899Z,18.00
2018-10-05T02:14:43.509Z,17.90
2018-10-05T02:17:16.577Z,17.80
2018-10-05T02:19:49.055Z,17.80
2018-10-05T02:22:21.493Z,17.80
2018-10-05T02:24:54.206Z,17.70
2018-10-05T02:27:26.611Z,17.70
2018-10-05T02:29:59.024Z,17.70
2018-10-05T02:32:31.346Z,17.60
2018-10-05T02:35:03.700Z,17.60
2018-10-05T02:37:35.879Z,17.60
2018-10-05T02:40:08.501Z,17.60
2018-10-05T02:42:40.672Z,17.50
2018-10-05T02:45:12.849Z,17.50
2018-10-05T02:47:46.009Z,17.50
2018-10-05T02:50:18.410Z,17.40
2018-10-05T02:52:52.033Z,17.40
2018-10-05T02:55:25.045Z,17.40
2018-10-05T02:57:57.529Z,17.40
2018-10-05T03:00:39.592Z,17.40
2018-10-05T03:03:14.578Z,17.40
2018-10-05T03:05:49.844Z,17.40
2018-10-05T03:08:24.036Z,17.30
2018-10-05T03:10:56.169Z,17.30
2018-10-05T03:13:28.894Z,17.30
2018-10-05T03:16:01.447Z,17.30
2018-10-05T03:18:33.612Z,17.20
2018-10-05T03:21:06.245Z,17.30
2018-10-05T03:23:38.812Z,17.20
2018-10-05T03:26:11.601Z,17.30
2018-10-05T03:28:43.809Z,17.20
2018-10-05T03:31:16.056Z,17.20
2018-10-05T03:33:48.559Z,17.20
2018-10-05T03:36:21.584Z,17.20
2018-10-05T03:38:54.186Z,17.20
2018-10-05T03:41:26.443Z,17.30
2018-10-05T03:43:58.848Z,17.20
2018-10-05T03:46:31.380Z,17.20
2018-10-05T03:49:04.895Z,17.20
2018-10-05T03:51:38.434Z,17.20
2018-10-05T03:54:10.810Z,17.20
2018-10-05T03:56:43.180Z,17.20
2018-10-05T03:59:15.891Z,17.20
2018-10-05T04:01:48.923Z,17.20
2018-10-05T04:04:21.592Z,17.10
2018-10-05T04:10:26.945Z,17.10
2018-10-05T04:12:59.423Z,17.20
2018-10-05T04:15:31.672Z,17.20
2018-10-05T04:18:04.377Z,17.20
2018-10-05T04:20:38.261Z,17.20
2018-10-05T04:23:11.252Z,17.30
2018-10-05T04:25:45.087Z,17.30
2018-10-05T04:28:18.339Z,17.30
2018-10-05T04:30:51.270Z,17.30
2018-10-05T04:33:23.693Z,17.30
2018-10-05T04:35:56.860Z,17.40
2018-10-05T04:38:29.737Z,17.40
2018-10-05T04:41:02.737Z,17.50
2018-10-05T04:43:36.151Z,17.50
2018-10-05T04:49:45.893Z,17.50
2018-10-05T04:52:20.632Z,17.50
2018-10-05T04:54:54.314Z,17.50
2018-10-05T04:57:28.171Z,17.50
2018-10-05T05:00:01.713Z,17.50
2018-10-05T05:02:39.752Z,17.50
2018-10-05T05:05:13.230Z,17.50
2018-10-05T05:07:46.720Z,17.50
2018-10-05T05:10:20.031Z,17.50
2018-10-05T05:12:53.409Z,17.50
2018-10-05T05:15:27.411Z,17.50
2018-10-05T05:18:00.847Z,17.40
2018-10-05T05:20:34.369Z,17.40
2018-10-05T05:23:07.778Z,17.40
2018-10-05T05:25:42.162Z,17.30
2018-10-05T05:28:15.616Z,17.30
2018-10-05T05:30:48.957Z,17.30
2018-10-05T05:33:22.504Z,17.30
2018-10-05T05:35:56.009Z,17.30
2018-10-05T05:38:29.764Z,17.30
2018-10-05T05:41:03.320Z,17.20
2018-10-05T05:43:37.973Z,17.20
2018-10-05T05:46:11.303Z,17.20
2018-10-05T05:48:44.738Z,17.20
2018-10-05T05:51:18.328Z,17.10
2018-10-05T05:53:52.210Z,17.10
2018-10-05T05:56:26.048Z,17.10
2018-10-05T05:58:59.592Z,17.20
2018-10-05T06:01:32.866Z,17.10
2018-10-05T06:04:06.324Z,17.10
2018-10-05T06:06:39.727Z,17.10
2018-10-05T06:09:13.333Z,17.10
2018-10-05T06:11:47.074Z,17.10
2018-10-05T06:14:20.722Z,17.10
2018-10-05T06:16:54.366Z,17.10
2018-10-05T06:19:28.374Z,17.10
2018-10-05T06:22:02.043Z,17.10
2018-10-05T06:24:35.493Z,17.10
2018-10-05T06:27:09.146Z,17.10
2018-10-05T06:29:42.652Z,17.10
2018-10-05T06:32:16.254Z,17.10
2018-10-05T06:34:49.167Z,17.10
2018-10-05T06:37:22.796Z,17.10
2018-10-05T06:39:55.683Z,17.10
2018-10-05T06:42:29.100Z,17.00
2018-10-05T06:45:02.313Z,17.00
2018-10-05T06:47:35.445Z,17.00
2018-10-05T06:50:08.432Z,17.00
2018-10-05T06:52:41.806Z,16.90
2018-10-05T06:55:15.374Z,16.90
2018-10-05T06:57:49.578Z,16.90
2018-10-05T07:00:22.575Z,16.90
2018-10-05T07:02:56.170Z,16.90
2018-10-05T07:05:30.415Z,16.90
2018-10-05T07:08:03.562Z,16.80
2018-10-05T07:10:37.162Z,16.90
2018-10-05T07:13:10.657Z,16.90
2018-10-05T07:15:43.707Z,16.80
2018-10-05T07:18:16.727Z,16.80
2018-10-05T07:20:50.592Z,16.80
2018-10-05T07:23:23.598Z,16.80
2018-10-05T07:25:56.918Z,16.80
2018-10-05T07:28:30.699Z,16.80
2018-10-05T07:31:04.038Z,16.80
2018-10-05T07:33:37.752Z,16.80
2018-10-05T07:36:11.409Z,16.80
2018-10-05T07:38:44.829Z,16.80
2018-10-05T07:41:18.189Z,16.80
2018-10-05T07:43:51.113Z,16.80
2018-10-05T07:46:24.288Z,16.70
2018-10-05T07:48:57.604Z,16.70
2018-10-05T07:51:31.024Z,16.70
2018-10-05T07:54:04.994Z,16.70
2018-10-05T07:56:38.746Z,16.60
2018-10-05T07:59:12.249Z,16.60
2018-10-05T08:01:45.427Z,16.60
2018-10-05T08:04:18.944Z,16.60
2018-10-05T08:06:52.328Z,16.60
2018-10-05T08:09:25.721Z,16.60
2018-10-05T08:11:59.239Z,16.60
2018-10-05T08:14:32.671Z,16.60
2018-10-05T08:17:06.500Z,16.60
2018-10-05T08:19:40.760Z,16.60
2018-10-05T08:22:45.961Z,16.60
2018-10-05T08:25:19.158Z,16.60
2018-10-05T08:27:52.065Z,16.60
2018-10-05T08:30:24.610Z,16.50
2018-10-05T08:32:57.641Z,16.50
2018-10-05T08:35:30.807Z,16.40
2018-10-05T08:38:03.817Z,16.40
2018-10-05T08:40:36.908Z,16.40
2018-10-05T08:46:36.272Z,16.40
2018-10-05T08:52:30.964Z,16.30
2018-10-05T08:55:05.349Z,16.30
2018-10-05T08:57:38.156Z,16.20
2018-10-05T09:00:11.792Z,16.30
2018-10-05T09:02:45.181Z,16.30
2018-10-05T09:05:18.590Z,16.30
2018-10-05T09:07:51.953Z,16.30
2018-10-05T09:13:56.301Z,16.20
2018-10-05T09:16:28.732Z,16.20
2018-10-05T09:19:01.629Z,16.20
2018-10-05T09:21:34.045Z,16.20
2018-10-05T09:24:06.903Z,16.10
2018-10-05T09:26:39.504Z,16.10
2018-10-05T09:29:12.336Z,16.10
2018-10-05T09:32:10.396Z,16.00
2018-10-05T09:34:43.940Z,16.00
2018-10-05T09:37:18.733Z,16.00
2018-10-05T09:39:52.510Z,16.00
2018-10-05T09:42:26.906Z,16.00
2018-10-05T09:45:00.800Z,16.00
2018-10-05T09:47:34.324Z,16.00
2018-10-05T09:50:07.810Z,15.90
2018-10-05T09:52:41.504Z,15.90
2018-10-05T09:55:15.060Z,15.90
2018-10-05T10:01:14.598Z,15.90
2018-10-05T10:03:47.992Z,15.90
2018-10-05T10:06:21.498Z,15.90
2018-10-05T10:08:54.995Z,15.90
2018-10-05T10:11:28.597Z,15.90
2018-10-05T10:14:01.939Z,15.90
2018-10-05T10:16:35.404Z,15.90
2018-10-05T10:19:08.831Z,15.90
2018-10-05T10:21:42.451Z,15.90
2018-10-05T10:24:16.234Z,15.90
2018-10-05T10:26:49.996Z,15.90
2018-10-05T10:29:23.363Z,15.90
2018-10-05T10:31:57.164Z,16.00
2018-10-05T10:34:30.619Z,16.00
2018-10-05T10:37:04.068Z,15.90
2018-10-05T10:39:37.368Z,15.90
2018-10-05T10:42:10.414Z,15.90
2018-10-05T10:48:04.883Z,15.90
2018-10-05T10:50:37.627Z,15.90
2018-10-05T10:53:10.007Z,15.90
2018-10-05T10:59:13.624Z,15.90
2018-10-05T11:01:46.197Z,15.90
2018-10-05T11:04:18.839Z,15.90
2018-10-05T11:06:51.315Z,15.90
2018-10-05T11:09:23.859Z,15.90
2018-10-05T11:11:57.209Z,15.90
2018-10-05T11:14:29.522Z,15.90
2018-10-05T11:17:01.951Z,15.90
2018-10-05T11:19:35.292Z,16.00
2018-10-05T11:22:07.987Z,16.00
2018-10-05T11:24:40.383Z,16.00
2018-10-05T11:27:13.116Z,16.00
2018-10-05T11:29:45.662Z,16.00
2018-10-05T11:32:21.257Z,16.00
2018-10-05T11:34:54.360Z,16.00
2018-10-05T11:37:27.914Z,16.00
2018-10-05T11:40:00.267Z,16.00
2018-10-05T11:42:32.689Z,16.00
2018-10-05T11:45:04.995Z,16.00
2018-10-05T11:47:37.721Z,16.10
2018-10-05T11:50:10.452Z,16.10
2018-10-05T11:52:42.884Z,16.10
2018-10-05T11:55:15.799Z,16.10
2018-10-05T11:57:48.238Z,16.10
2018-10-05T12:00:20.892Z,16.10
2018-10-05T12:02:53.222Z,16.20
2018-10-05T12:05:25.885Z,16.20
2018-10-05T12:07:58.120Z,16.20
2018-10-05T12:10:32.022Z,16.30
2018-10-05T12:13:04.720Z,16.30
2018-10-05T12:15:37.302Z,16.40
2018-10-05T12:18:09.525Z,16.30
2018-10-05T12:20:41.674Z,16.30
2018-10-05T12:23:13.870Z,16.30
2018-10-05T12:29:08.025Z,16.40
2018-10-05T12:31:40.855Z,16.50
2018-10-05T12:34:13.904Z,16.50
2018-10-05T12:36:46.462Z,16.60
2018-10-05T12:39:19.235Z,16.60
2018-10-05T12:41:51.854Z,16.70
2018-10-05T12:47:56.092Z,16.70
2018-10-05T12:50:29.169Z,16.80
2018-10-05T12:53:02.164Z,16.90
2018-10-05T12:56:06.520Z,16.90
2018-10-05T12:58:40.688Z,16.90
2018-10-05T13:01:13.498Z,17.00
2018-10-05T13:03:49.861Z,17.00
2018-10-05T13:06:24.536Z,17.10
2018-10-05T13:12:19.344Z,17.20
2018-10-05T13:14:52.639Z,17.40
2018-10-05T13:17:26.164Z,17.50
2018-10-05T13:20:01.626Z,17.70
2018-10-05T13:22:34.915Z,17.90
2018-10-05T13:25:08.716Z,18.00
2018-10-05T13:27:42.157Z,18.20
2018-10-05T13:30:16.181Z,18.40
2018-10-05T13:32:49.657Z,18.60
2018-10-05T13:35:23.485Z,18.90
2018-10-05T13:37:57.068Z,18.90
2018-10-05T13:40:31.206Z,19.00
2018-10-05T13:43:04.296Z,19.20
2018-10-05T13:45:37.168Z,19.50
2018-10-05T13:48:17.047Z,19.60
2018-10-05T13:50:49.930Z,19.60
2018-10-05T13:53:23.429Z,19.50
2018-10-05T13:55:57.037Z,19.60
2018-10-05T13:58:30.408Z,19.70
2018-10-05T14:01:04.364Z,19.80
2018-10-05T14:03:37.619Z,19.90
2018-10-05T14:06:10.970Z,20.10
2018-10-05T14:08:44.364Z,19.90
2018-10-05T14:11:18.032Z,20.20
2018-10-05T14:13:51.572Z,20.10
2018-10-05T14:16:25.884Z,19.90
2018-10-05T14:18:59.281Z,20.10
2018-10-05T14:21:33.585Z,20.10
2018-10-05T14:24:07.218Z,20.20
2018-10-05T14:26:40.354Z,20.50
2018-10-05T14:29:13.395Z,20.70
2018-10-05T14:31:48.223Z,20.50
2018-10-05T14:34:22.480Z,20.40
2018-10-05T14:36:56.185Z,20.60
2018-10-05T14:39:29.868Z,21.00
2018-10-05T14:42:03.263Z,20.80
2018-10-05T14:44:38.597Z,20.70
2018-10-05T14:47:12.093Z,20.80
2018-10-05T14:49:45.804Z,20.40
2018-10-05T14:52:23.654Z,20.40
2018-10-05T14:54:57.767Z,20.30
2018-10-05T14:57:32.125Z,20.50
2018-10-05T15:00:05.923Z,20.90
2018-10-05T15:02:39.196Z,21.40
2018-10-05T15:05:12.420Z,21.40
2018-10-05T15:07:48.690Z,21.70
2018-10-05T15:10:21.994Z,21.70
2018-10-05T15:12:55.756Z,21.60
2018-10-05T15:15:29.572Z,21.20
2018-10-05T15:18:02.818Z,21.20
2018-10-05T15:20:37.031Z,21.10
2018-10-05T15:23:10.938Z,20.60
2018-10-05T15:25:44.617Z,21.00
2018-10-05T15:31:39.196Z,22.70
2018-10-05T15:34:16.202Z,22.40
2018-10-05T15:36:49.068Z,22.00
2018-10-05T15:39:22.142Z,21.60
2018-10-05T15:41:55.955Z,21.70
2018-10-05T15:44:52.612Z,21.90
2018-10-05T15:47:25.754Z,22.30
2018-10-05T15:50:04.296Z,22.50
2018-10-05T15:52:39.039Z,22.60
2018-10-05T15:55:22.951Z,23.00
2018-10-05T15:57:56.257Z,22.80
2018-10-05T16:00:29.609Z,23.10
2018-10-05T16:03:04.113Z,23.40
2018-10-05T16:05:36.806Z,24.10
2018-10-05T16:08:09.364Z,23.50
2018-10-05T16:10:41.924Z,23.10
2018-10-05T16:13:17.583Z,23.50
2018-10-05T16:15:52.935Z,23.00
2018-10-05T16:18:25.504Z,22.50
2018-10-05T16:20:59.341Z,23.30
2018-10-05T16:23:34.927Z,23.50
2018-10-05T16:26:07.519Z,23.70
2018-10-05T16:28:40.119Z,23.60
2018-10-05T16:31:12.709Z,23.80
2018-10-05T16:33:45.143Z,23.40
2018-10-05T16:36:19.053Z,23.10
2018-10-05T16:38:51.843Z,23.20
2018-10-05T16:41:24.319Z,23.30
2018-10-05T16:43:58.162Z,23.70
2018-10-05T16:46:30.758Z,23.30
2018-10-05T16:49:03.468Z,23.60
2018-10-05T16:51:36.641Z,23.90
2018-10-05T16:54:10.290Z,24.00
2018-10-05T16:56:45.230Z,23.20
2018-10-05T16:59:17.669Z,23.80
2018-10-05T17:02:01.328Z,23.70
2018-10-05T17:04:34.013Z,23.90
2018-10-05T17:07:06.547Z,23.80
2018-10-05T17:09:43.091Z,24.00
2018-10-05T17:12:15.539Z,24.00
2018-10-05T17:14:49.602Z,24.30
2018-10-05T17:17:22.429Z,24.50
2018-10-05T17:19:58.602Z,24.40
2018-10-05T17:22:31.899Z,23.60
2018-10-05T17:25:04.270Z,24.00
2018-10-05T17:27:39.320Z,23.80
2018-10-05T17:30:16.195Z,23.70
2018-10-05T17:32:52.481Z,23.60
2018-10-05T17:35:28.000Z,23.80
2018-10-05T17:38:02.251Z,24.00
2018-10-05T17:44:05.791Z,24.80
2018-10-05T17:50:12.639Z,24.80
2018-10-05T17:52:45.108Z,24.10
2018-10-05T17:55:18.725Z,24.60
2018-10-05T17:57:51.646Z,24.40
2018-10-05T18:00:24.696Z,24.50
2018-10-05T18:03:25.176Z,24.40
2018-10-05T18:06:01.190Z,23.60
2018-10-05T18:08:34.438Z,23.10
2018-10-05T18:11:08.102Z,23.10
2018-10-05T18:13:40.542Z,23.90
2018-10-05T18:16:13.650Z,23.90
2018-10-05T18:18:46.378Z,23.60
2018-10-05T18:21:19.505Z,23.40
2018-10-05T18:23:52.361Z,23.10
2018-10-05T18:26:25.924Z,22.90
2018-10-05T18:33:04.442Z,23.80
2018-10-05T18:35:38.039Z,24.00
2018-10-05T18:38:10.929Z,23.30
2018-10-05T18:40:43.989Z,23.10
2018-10-05T18:43:16.880Z,23.40
2018-10-05T18:45:49.696Z,23.60
2018-10-05T18:48:22.526Z,23.70
2018-10-05T18:50:56.575Z,23.70
2018-10-05T18:57:00.393Z,23.60
2018-10-05T18:59:33.697Z,23.50
2018-10-05T19:02:06.639Z,23.80
2018-10-05T19:04:39.995Z,23.40
2018-10-05T19:07:14.974Z,23.40
2018-10-05T19:09:49.991Z,23.20
2018-10-05T19:12:25.691Z,23.10
2018-10-05T19:15:03.464Z,23.50
2018-10-05T19:17:39.062Z,23.30
2018-10-05T19:20:14.501Z,23.30
2018-10-05T19:22:48.365Z,23.20
2018-10-05T19:25:21.979Z,23.50
2018-10-05T19:27:54.907Z,24.00
2018-10-05T19:30:27.473Z,24.10
2018-10-05T19:33:00.496Z,24.50
2018-10-05T19:35:33.666Z,24.30
2018-10-05T19:38:06.967Z,23.70
2018-10-05T19:40:40.650Z,24.10
2018-10-05T19:43:14.110Z,23.80
2018-10-05T19:45:47.164Z,23.50
2018-10-05T19:51:51.946Z,23.60
2018-10-05T19:58:43.530Z,23.40
2018-10-05T20:01:16.938Z,24.10
2018-10-05T20:03:50.450Z,23.90
2018-10-05T20:06:24.491Z,24.30
2018-10-05T20:12:20.071Z,25.10
2018-10-05T20:14:53.480Z,25.00
2018-10-05T20:17:28.719Z,24.90
2018-10-05T20:20:01.120Z,25.70
2018-10-05T20:22:33.909Z,26.00
2018-10-05T20:25:07.824Z,26.10
2018-10-05T20:27:40.789Z,25.50
2018-10-05T20:30:13.614Z,26.10
2018-10-05T20:32:46.024Z,26.10
2018-10-05T20:35:19.647Z,26.30
2018-10-05T20:37:52.605Z,25.00
2018-10-05T20:40:25.626Z,25.10
2018-10-05T20:42:58.795Z,25.40
2018-10-05T20:45:32.408Z,25.30
2018-10-05T20:48:05.509Z,24.90
2018-10-05T20:50:38.727Z,24.90
2018-10-05T20:53:11.837Z,25.10
2018-10-05T20:55:45.011Z,24.90
2018-10-05T20:58:17.276Z,24.80
2018-10-05T21:00:50.268Z,24.90
2018-10-05T21:03:23.108Z,24.90
2018-10-05T21:05:55.921Z,25.10
2018-10-05T21:08:28.965Z,25.20
2018-10-05T21:11:02.241Z,24.90
2018-10-05T21:13:35.479Z,25.10
2018-10-05T21:16:08.312Z,25.10
2018-10-05T21:18:42.245Z,24.40
2018-10-05T21:21:15.477Z,24.50
2018-10-05T21:23:49.905Z,24.20
2018-10-05T21:29:58.487Z,23.90
2018-10-05T21:32:30.897Z,23.70
2018-10-05T21:35:06.933Z,23.70
2018-10-05T21:37:39.379Z,23.80
2018-10-05T21:40:12.192Z,23.70
2018-10-05T21:42:45.399Z,23.50
2018-10-05T21:45:20.541Z,23.40
2018-10-05T21:47:53.407Z,23.40
2018-10-05T21:50:25.761Z,23.60
2018-10-05T21:52:58.869Z,23.50
2018-10-05T21:56:03.038Z,23.70
2018-10-05T21:58:35.568Z,23.90
2018-10-05T22:01:09.054Z,23.50
2018-10-05T22:03:49.160Z,23.70
2018-10-05T22:06:22.772Z,23.20
2018-10-05T22:09:02.442Z,23.00
2018-10-05T22:11:34.912Z,22.90
2018-10-05T22:14:09.592Z,23.00
2018-10-05T22:16:42.561Z,23.10
2018-10-05T22:19:17.144Z,22.70
2018-10-05T22:21:50.488Z,22.50
2018-10-05T22:24:23.491Z,22.50
2018-10-05T22:26:57.962Z,22.40
2018-10-05T22:29:30.744Z,22.40
2018-10-05T22:32:03.581Z,22.40
2018-10-05T22:34:37.023Z,22.30
2018-10-05T22:37:09.948Z,22.20
2018-10-05T22:39:42.710Z,22.20
2018-10-05T22:42:15.168Z,22.20
2018-10-05T22:44:47.928Z,22.30
2018-10-05T22:47:20.852Z,22.30
2018-10-05T22:49:55.045Z,22.30
2018-10-05T22:52:28.380Z,22.20
2018-10-05T22:55:02.252Z,22.20
2018-10-05T22:57:36.345Z,22.10
2018-10-05T23:00:09.628Z,22.00
2018-10-05T23:02:42.179Z,22.10
2018-10-05T23:05:15.830Z,22.00
2018-10-05T23:07:48.490Z,21.90
2018-10-05T23:10:21.192Z,21.80
2018-10-05T23:12:54.133Z,21.80
2018-10-05T23:15:28.821Z,21.70
2018-10-05T23:18:02.046Z,21.80
2018-10-05T23:20:34.564Z,21.70
2018-10-05T23:23:07.559Z,21.60
2018-10-05T23:25:40.661Z,21.60
2018-10-05T23:28:13.749Z,21.50
2018-10-05T23:30:46.386Z,21.50
2018-10-05T23:33:20.143Z,21.50
2018-10-05T23:35:52.885Z,21.40
2018-10-05T23:38:25.806Z,21.30
2018-10-05T23:40:58.308Z,21.30
2018-10-05T23:43:31.020Z,21.40
2018-10-05T23:46:05.090Z,21.30
2018-10-05T23:48:38.160Z,21.20
2018-10-05T23:51:11.065Z,21.20
2018-10-05T23:53:43.484Z,21.20
2018-10-05T23:56:16.016Z,21.20
2018-10-05T23:58:49.214Z,21.20
